Murom, Russia
Current Conditions -  °F | °C
As of 7:00 PM on Saturday 25 Oct 2014 (Local Time) from UWGG Reporting Station
Clear Clear  
Wind Chill: 11°   Ceiling: Unl
Heat Index: 19°   Visibility: 6mi
Dew Point: 14°   Wind: 7mph
Humidity: 80%   Direction: 290°WNW
Pressure: 30.59"   Gusts: NA
Location:  55.57°N, 42.04°E
Report Text: UWGG 251600Z 29003MPS CAVOK M07/M10 Q1036 NOSIG 36820050 RMKQFE770
Loading
Personal Weather Stations






























Interactive Weather Map
Tropical Storm Tracking
New forecast layout! Learn more

10-Day Weather Forecast

Advertisements
Track Severe Weather on mobile